createdAt,value
2022-07-25T00:01:55.192Z,15.40
2022-07-25T00:04:24.277Z,15.40
2022-07-25T00:06:51.894Z,15.40
2022-07-25T00:09:19.362Z,15.40
2022-07-25T00:11:49.126Z,15.40
2022-07-25T00:14:16.548Z,15.40
2022-07-25T00:16:44.385Z,15.40
2022-07-25T00:19:11.738Z,15.30
2022-07-25T00:21:39.156Z,15.30
2022-07-25T00:24:07.327Z,15.30
2022-07-25T00:26:39.718Z,15.30
2022-07-25T00:29:07.960Z,15.20
2022-07-25T00:31:36.001Z,15.20
2022-07-25T00:34:04.371Z,15.20
2022-07-25T00:36:31.986Z,15.20
2022-07-25T00:38:59.389Z,15.20
2022-07-25T00:41:26.628Z,15.20
2022-07-25T00:43:53.956Z,15.20
2022-07-25T00:46:21.382Z,15.20
2022-07-25T00:48:49.165Z,15.10
2022-07-25T00:51:17.378Z,15.10
2022-07-25T00:53:45.645Z,15.10
2022-07-25T00:56:12.991Z,15.10
2022-07-25T00:58:40.340Z,15.10
2022-07-25T01:01:07.715Z,15.00
2022-07-25T01:03:35.872Z,15.00
2022-07-25T01:06:03.596Z,15.00
2022-07-25T01:08:31.372Z,15.00
2022-07-25T01:10:58.550Z,14.90
2022-07-25T01:13:25.849Z,14.90
2022-07-25T01:15:53.344Z,14.90
2022-07-25T01:18:20.713Z,14.90
2022-07-25T01:20:48.104Z,14.90
2022-07-25T01:23:15.559Z,14.90
2022-07-25T01:25:42.923Z,14.90
2022-07-25T01:28:10.147Z,14.90
2022-07-25T01:30:37.920Z,14.90
2022-07-25T01:33:06.746Z,14.80
2022-07-25T01:35:34.549Z,14.80
2022-07-25T01:38:02.175Z,14.80
2022-07-25T01:40:29.406Z,14.80
2022-07-25T01:42:56.669Z,14.70
2022-07-25T01:45:24.352Z,14.70
2022-07-25T01:47:51.773Z,14.70
2022-07-25T01:50:19.346Z,14.70
2022-07-25T01:52:46.784Z,14.70
2022-07-25T01:55:14.008Z,14.70
2022-07-25T01:57:41.588Z,14.70
2022-07-25T02:00:17.795Z,14.70
2022-07-25T02:02:45.698Z,14.60
2022-07-25T02:05:15.169Z,14.60
2022-07-25T02:07:42.533Z,14.60
2022-07-25T02:10:10.096Z,14.60
2022-07-25T02:12:37.387Z,14.60
2022-07-25T02:15:05.346Z,14.60
2022-07-25T02:17:34.910Z,14.60
2022-07-25T02:20:02.355Z,14.60
2022-07-25T02:22:29.694Z,14.50
2022-07-25T02:24:57.020Z,14.50
2022-07-25T02:27:24.309Z,14.60
2022-07-25T02:29:51.663Z,14.60
2022-07-25T02:32:19.209Z,14.60
2022-07-25T02:34:46.940Z,14.70
2022-07-25T02:37:14.235Z,14.60
2022-07-25T02:39:41.545Z,14.60
2022-07-25T02:42:08.801Z,14.70
2022-07-25T02:44:38.527Z,14.70
2022-07-25T02:47:05.906Z,14.60
2022-07-25T02:49:33.496Z,14.60
2022-07-25T02:52:00.790Z,14.60
2022-07-25T02:54:28.067Z,14.60
2022-07-25T02:56:55.424Z,14.60
2022-07-25T02:59:22.777Z,14.60
2022-07-25T03:01:50.164Z,14.70
2022-07-25T03:04:17.723Z,14.60
2022-07-25T03:06:45.225Z,14.70
2022-07-25T03:09:12.595Z,14.70
2022-07-25T03:11:39.886Z,14.70
2022-07-25T03:14:09.064Z,14.60
2022-07-25T03:16:36.942Z,14.60
2022-07-25T03:19:04.754Z,14.60
2022-07-25T03:21:32.107Z,14.60
2022-07-25T03:23:59.792Z,14.70
2022-07-25T03:26:27.157Z,14.70
2022-07-25T03:28:54.303Z,14.70
2022-07-25T03:31:21.713Z,14.80
2022-07-25T03:33:48.918Z,14.80
2022-07-25T03:36:16.342Z,14.80
2022-07-25T03:38:43.521Z,14.90
2022-07-25T03:41:10.872Z,14.90
2022-07-25T03:43:38.252Z,15.00
2022-07-25T03:46:05.586Z,15.10
2022-07-25T03:48:32.926Z,15.10
2022-07-25T03:51:04.834Z,15.20
2022-07-25T03:53:54.334Z,15.30
2022-07-25T03:56:24.758Z,15.40
2022-07-25T03:58:52.082Z,15.60
2022-07-25T04:01:19.482Z,15.60
2022-07-25T04:03:50.198Z,15.80
2022-07-25T04:06:17.486Z,15.90
2022-07-25T04:08:44.726Z,15.90
2022-07-25T04:11:13.344Z,16.00
2022-07-25T04:13:40.647Z,16.10
2022-07-25T04:16:11.650Z,16.20
2022-07-25T04:18:42.903Z,16.30
2022-07-25T04:21:11.443Z,16.50
2022-07-25T04:23:38.771Z,16.90
2022-07-25T04:26:06.290Z,17.70
2022-07-25T04:28:34.825Z,18.70
2022-07-25T04:31:02.056Z,20.00
2022-07-25T04:33:29.377Z,20.90
2022-07-25T04:35:56.600Z,21.20
2022-07-25T04:38:26.265Z,21.60
2022-07-25T04:40:53.516Z,22.10
2022-07-25T04:43:21.662Z,22.50
2022-07-25T04:45:48.887Z,23.20
2022-07-25T04:48:16.207Z,23.20
2022-07-25T04:50:43.426Z,23.70
2022-07-25T04:53:10.728Z,24.20
2022-07-25T04:55:38.997Z,24.40
2022-07-25T04:58:06.924Z,24.60
2022-07-25T05:00:34.728Z,25.00
2022-07-25T05:03:02.188Z,25.20
2022-07-25T05:05:29.408Z,25.40
2022-07-25T05:07:58.867Z,25.20
2022-07-25T05:10:37.861Z,25.10
2022-07-25T05:13:05.189Z,25.50
2022-07-25T05:15:32.318Z,25.70
2022-07-25T05:17:59.672Z,25.90
2022-07-25T05:20:27.582Z,26.20
2022-07-25T05:22:54.865Z,25.90
2022-07-25T05:25:24.162Z,26.10
2022-07-25T05:27:54.676Z,26.20
2022-07-25T05:30:22.078Z,26.60
2022-07-25T05:32:50.019Z,27.30
2022-07-25T05:35:17.328Z,27.60
2022-07-25T05:37:47.250Z,27.70
2022-07-25T05:40:14.801Z,28.30
2022-07-25T05:42:41.993Z,28.10
2022-07-25T05:45:11.841Z,27.70
2022-07-25T05:47:39.379Z,28.20
2022-07-25T05:50:09.401Z,28.30
2022-07-25T05:52:38.673Z,27.90
2022-07-25T05:55:06.379Z,28.40
2022-07-25T05:57:35.097Z,28.50
2022-07-25T06:00:04.752Z,28.50
2022-07-25T06:02:35.130Z,28.80
2022-07-25T06:05:02.592Z,28.70
2022-07-25T06:07:29.849Z,28.90
2022-07-25T06:09:57.129Z,29.40
2022-07-25T06:12:24.554Z,30.20
2022-07-25T06:14:52.026Z,29.60
2022-07-25T06:17:19.802Z,28.50
2022-07-25T06:19:47.126Z,28.90
2022-07-25T06:22:14.810Z,28.90
2022-07-25T06:24:42.429Z,29.20
2022-07-25T06:27:09.755Z,29.30
2022-07-25T06:29:40.393Z,29.70
2022-07-25T06:32:10.937Z,30.20
2022-07-25T06:34:38.702Z,30.50
2022-07-25T06:37:05.973Z,31.10
2022-07-25T06:39:33.329Z,30.50
2022-07-25T06:42:01.072Z,31.20
2022-07-25T06:44:35.518Z,31.40
2022-07-25T06:47:04.027Z,30.80
2022-07-25T06:49:33.980Z,31.20
2022-07-25T06:52:01.413Z,31.70
2022-07-25T06:54:28.634Z,32.00
2022-07-25T06:56:55.883Z,32.00
2022-07-25T06:59:23.122Z,32.10
2022-07-25T07:01:52.509Z,32.40
2022-07-25T07:04:20.020Z,32.10
2022-07-25T07:06:49.436Z,31.30
2022-07-25T07:09:16.579Z,31.60
2022-07-25T07:11:43.860Z,31.50
2022-07-25T07:14:12.879Z,31.40
2022-07-25T07:16:43.446Z,30.90
2022-07-25T07:19:14.783Z,31.00
2022-07-25T07:21:42.810Z,31.60
2022-07-25T07:24:23.918Z,31.50
2022-07-25T07:26:54.130Z,31.40
2022-07-25T07:29:24.067Z,31.60
2022-07-25T07:31:51.393Z,32.10
2022-07-25T07:34:18.702Z,31.60
2022-07-25T07:36:46.111Z,31.40
2022-07-25T07:39:13.299Z,29.90
2022-07-25T07:41:40.841Z,29.20
2022-07-25T07:44:08.074Z,28.40
2022-07-25T07:46:35.581Z,27.30
2022-07-25T07:49:02.995Z,27.10
2022-07-25T07:51:30.416Z,26.30
2022-07-25T07:54:16.006Z,25.90
2022-07-25T07:56:43.334Z,25.70
2022-07-25T07:59:10.690Z,25.70
2022-07-25T08:01:39.213Z,25.50
2022-07-25T08:04:06.563Z,25.80
2022-07-25T08:06:36.924Z,25.80
2022-07-25T08:09:04.730Z,26.00
2022-07-25T08:11:32.212Z,26.40
2022-07-25T08:13:59.411Z,26.50
2022-07-25T08:16:26.965Z,26.30
2022-07-25T08:18:54.226Z,26.20
2022-07-25T08:21:21.532Z,26.10
2022-07-25T08:23:48.813Z,26.20
2022-07-25T08:26:16.112Z,26.00
2022-07-25T08:28:43.767Z,26.00
2022-07-25T08:31:11.360Z,26.00
2022-07-25T08:33:38.615Z,26.00
2022-07-25T08:36:06.204Z,26.00
2022-07-25T08:38:35.522Z,25.60
2022-07-25T08:41:03.802Z,25.50
2022-07-25T08:43:37.940Z,25.40
2022-07-25T08:46:07.126Z,25.50
2022-07-25T08:48:34.942Z,25.30
2022-07-25T08:51:03.133Z,25.30
2022-07-25T08:53:33.544Z,25.70
2022-07-25T08:56:09.990Z,25.80
2022-07-25T08:58:40.740Z,26.10
2022-07-25T09:01:08.276Z,26.40
2022-07-25T09:03:36.859Z,26.30
2022-07-25T09:06:15.575Z,26.30
2022-07-25T09:08:57.123Z,26.70
2022-07-25T09:11:42.444Z,27.40
2022-07-25T09:14:14.957Z,28.30
2022-07-25T09:16:45.132Z,29.10
2022-07-25T09:19:17.848Z,29.80
2022-07-25T09:21:57.333Z,29.20
2022-07-25T09:24:26.788Z,29.10
2022-07-25T09:26:57.360Z,29.40
2022-07-25T09:29:30.612Z,30.00
2022-07-25T09:31:59.546Z,30.80
2022-07-25T09:34:47.661Z,31.10
2022-07-25T09:37:20.016Z,30.70
2022-07-25T09:39:51.659Z,31.20
2022-07-25T09:42:18.815Z,31.30
2022-07-25T09:45:12.673Z,31.30
2022-07-25T09:47:55.003Z,31.60
2022-07-25T09:50:23.864Z,32.50
2022-07-25T09:52:52.600Z,32.80
2022-07-25T09:55:21.137Z,33.60
2022-07-25T09:57:54.613Z,33.10
2022-07-25T10:00:28.153Z,33.10
2022-07-25T10:02:58.153Z,32.60
2022-07-25T10:05:38.557Z,32.90
2022-07-25T10:08:08.350Z,31.90
2022-07-25T10:10:41.502Z,31.70
2022-07-25T10:13:15.558Z,31.90
2022-07-25T10:15:51.179Z,32.00
2022-07-25T10:18:24.856Z,32.10
2022-07-25T10:20:55.470Z,32.00
2022-07-25T10:23:24.662Z,31.40
2022-07-25T10:26:01.163Z,31.10
2022-07-25T10:28:51.837Z,31.40
2022-07-25T10:31:34.116Z,31.80
2022-07-25T10:34:05.547Z,32.50
2022-07-25T10:36:49.634Z,32.00
2022-07-25T10:39:19.753Z,32.30
2022-07-25T10:42:05.359Z,32.80
2022-07-25T10:44:48.473Z,32.90
2022-07-25T10:47:17.140Z,32.90
2022-07-25T10:50:15.106Z,31.90
2022-07-25T10:52:42.468Z,31.30
2022-07-25T10:55:10.020Z,30.90
2022-07-25T10:57:49.581Z,31.20
2022-07-25T11:00:27.224Z,31.50
2022-07-25T11:02:57.884Z,31.50
2022-07-25T11:05:25.771Z,32.00
2022-07-25T11:08:20.208Z,32.70
2022-07-25T11:10:50.374Z,32.00
2022-07-25T11:13:17.886Z,32.10
2022-07-25T11:15:45.370Z,32.40
2022-07-25T11:18:13.153Z,33.10
2022-07-25T11:20:40.555Z,33.70
2022-07-25T11:23:08.002Z,33.60
2022-07-25T11:25:35.832Z,33.70
2022-07-25T11:28:04.101Z,33.00
2022-07-25T11:30:31.476Z,32.50
2022-07-25T11:33:01.812Z,32.50
2022-07-25T11:35:31.825Z,32.10
2022-07-25T11:38:04.125Z,32.50
2022-07-25T11:40:33.959Z,31.50
2022-07-25T11:43:01.385Z,31.00
2022-07-25T11:45:33.691Z,30.80
2022-07-25T11:48:10.357Z,31.00
2022-07-25T11:50:40.568Z,31.30
2022-07-25T11:53:10.589Z,31.20
2022-07-25T11:55:41.064Z,31.30
2022-07-25T11:58:09.834Z,31.60
2022-07-25T12:00:42.493Z,31.80
2022-07-25T12:03:15.577Z,32.60
2022-07-25T12:05:45.306Z,32.90
2022-07-25T12:08:18.102Z,32.20
2022-07-25T12:10:47.809Z,31.70
2022-07-25T12:13:27.029Z,31.40
2022-07-25T12:15:56.522Z,31.30
2022-07-25T12:18:24.425Z,31.00
2022-07-25T12:20:53.150Z,31.50
2022-07-25T12:23:22.840Z,31.10
2022-07-25T12:25:53.571Z,31.60
2022-07-25T12:28:21.092Z,31.50
2022-07-25T12:30:55.917Z,31.80
2022-07-25T12:33:24.523Z,32.30
2022-07-25T12:35:51.990Z,32.40
2022-07-25T12:38:19.902Z,32.90
2022-07-25T12:40:47.253Z,32.50
2022-07-25T12:43:14.780Z,32.70
2022-07-25T12:45:42.810Z,33.00
2022-07-25T12:48:10.849Z,33.20
2022-07-25T12:50:38.237Z,33.10
2022-07-25T12:53:05.631Z,32.90
2022-07-25T12:55:33.048Z,32.20
2022-07-25T12:58:01.044Z,31.50
2022-07-25T13:00:28.924Z,31.40
2022-07-25T13:02:56.421Z,31.40
2022-07-25T13:05:24.929Z,31.70
2022-07-25T13:07:52.935Z,31.30
2022-07-25T13:10:20.608Z,31.20
2022-07-25T13:12:48.739Z,30.40
2022-07-25T13:15:18.321Z,30.90
2022-07-25T13:17:45.676Z,31.20
2022-07-25T13:20:13.253Z,31.20
2022-07-25T13:22:40.651Z,31.30
2022-07-25T13:25:08.337Z,31.60
2022-07-25T13:27:39.353Z,31.50
2022-07-25T13:30:08.131Z,31.20
2022-07-25T13:32:35.453Z,31.20
2022-07-25T13:35:05.499Z,30.70
2022-07-25T13:37:33.300Z,30.20
2022-07-25T13:40:00.774Z,30.10
2022-07-25T13:42:28.117Z,30.00
2022-07-25T13:44:55.643Z,30.20
2022-07-25T13:47:26.961Z,30.40
2022-07-25T13:49:58.981Z,30.50
2022-07-25T13:52:26.306Z,30.60
2022-07-25T13:54:53.781Z,30.10
2022-07-25T13:57:21.035Z,29.20
2022-07-25T13:59:48.606Z,28.90
2022-07-25T14:02:15.871Z,28.70
2022-07-25T14:04:43.331Z,28.60
2022-07-25T14:07:10.694Z,28.60
2022-07-25T14:09:38.944Z,28.60
2022-07-25T14:12:06.243Z,28.60
2022-07-25T14:14:33.580Z,28.00
2022-07-25T14:17:00.880Z,28.00
2022-07-25T14:19:28.362Z,27.50
2022-07-25T14:21:55.719Z,27.20
2022-07-25T14:24:23.086Z,27.60
2022-07-25T14:26:50.479Z,27.30
2022-07-25T14:29:20.076Z,27.30
2022-07-25T14:31:47.532Z,27.50
2022-07-25T14:34:18.371Z,27.80
2022-07-25T14:36:47.778Z,27.90
2022-07-25T14:39:15.961Z,28.20
2022-07-25T14:41:43.660Z,28.30
2022-07-25T14:44:12.118Z,28.20
2022-07-25T14:46:40.790Z,28.30
2022-07-25T14:49:08.928Z,27.90
2022-07-25T14:51:36.536Z,27.90
2022-07-25T14:54:03.909Z,28.00
2022-07-25T14:56:31.772Z,27.90
2022-07-25T14:58:59.603Z,28.00
2022-07-25T15:01:27.138Z,28.00
2022-07-25T15:03:56.326Z,28.00
2022-07-25T15:06:28.782Z,28.10
2022-07-25T15:08:59.194Z,27.90
2022-07-25T15:11:28.945Z,27.80
2022-07-25T15:13:57.343Z,27.80
2022-07-25T15:16:25.667Z,27.70
2022-07-25T15:19:15.337Z,27.80
2022-07-25T15:21:41.086Z,27.60
2022-07-25T15:24:09.031Z,27.70
2022-07-25T15:26:37.014Z,27.50
2022-07-25T15:29:08.276Z,27.40
2022-07-25T15:31:37.305Z,27.50
2022-07-25T15:34:04.938Z,27.30
2022-07-25T15:36:32.399Z,27.30
2022-07-25T15:38:59.739Z,27.30
2022-07-25T15:41:27.147Z,27.40
2022-07-25T15:43:54.476Z,27.30
2022-07-25T15:46:23.027Z,27.20
2022-07-25T15:48:50.582Z,27.20
2022-07-25T15:51:18.309Z,27.10
2022-07-25T15:53:46.107Z,27.10
2022-07-25T15:56:16.633Z,27.10
2022-07-25T15:58:44.823Z,27.10
2022-07-25T16:01:12.424Z,27.00
2022-07-25T16:03:42.610Z,27.00
2022-07-25T16:06:10.151Z,26.70
2022-07-25T16:08:37.868Z,26.50
2022-07-25T16:11:05.360Z,26.50
2022-07-25T16:13:33.086Z,26.50
2022-07-25T16:16:02.730Z,26.40
2022-07-25T16:18:31.997Z,26.50
2022-07-25T16:21:00.676Z,26.40
2022-07-25T16:23:28.328Z,26.30
2022-07-25T16:25:55.617Z,26.30
2022-07-25T16:28:23.125Z,26.40
2022-07-25T16:30:50.623Z,26.40
2022-07-25T16:33:18.036Z,26.30
2022-07-25T16:35:45.444Z,26.30
2022-07-25T16:38:13.099Z,26.20
2022-07-25T16:40:40.402Z,26.10
2022-07-25T16:43:08.222Z,26.10
2022-07-25T16:45:36.784Z,26.10
2022-07-25T16:48:06.615Z,26.10
2022-07-25T16:50:33.962Z,26.10
2022-07-25T16:53:01.464Z,26.10
2022-07-25T16:55:28.853Z,26.10
2022-07-25T16:57:57.642Z,26.10
2022-07-25T17:00:25.011Z,26.20
2022-07-25T17:02:52.478Z,26.20
2022-07-25T17:05:20.089Z,26.10
2022-07-25T17:07:49.117Z,26.00
2022-07-25T17:10:16.484Z,25.90
2022-07-25T17:12:43.908Z,25.80
2022-07-25T17:15:12.587Z,25.90
2022-07-25T17:17:42.902Z,25.80
2022-07-25T17:20:10.638Z,25.70
2022-07-25T17:22:39.030Z,25.70
2022-07-25T17:25:07.788Z,25.70
2022-07-25T17:27:35.889Z,25.60
2022-07-25T17:30:04.876Z,25.50
2022-07-25T17:32:32.297Z,25.50
2022-07-25T17:35:02.056Z,25.50
2022-07-25T17:37:29.752Z,25.50
2022-07-25T17:39:58.617Z,25.40
2022-07-25T17:42:26.124Z,25.40
2022-07-25T17:44:53.461Z,25.20
2022-07-25T17:47:22.227Z,25.00
2022-07-25T17:49:50.511Z,24.90
2022-07-25T17:52:19.083Z,24.90
2022-07-25T17:54:46.307Z,25.00
2022-07-25T17:57:13.797Z,25.10
2022-07-25T17:59:41.020Z,25.20
2022-07-25T18:02:08.438Z,25.10
2022-07-25T18:04:36.082Z,25.10
2022-07-25T18:07:04.912Z,25.20
2022-07-25T18:09:32.189Z,25.10
2022-07-25T18:12:00.403Z,25.10
2022-07-25T18:14:28.807Z,25.00
2022-07-25T18:16:56.772Z,24.90
2022-07-25T18:19:25.313Z,24.80
2022-07-25T18:21:53.378Z,24.70
2022-07-25T18:24:20.594Z,24.70
2022-07-25T18:26:47.941Z,24.60
2022-07-25T18:29:15.184Z,24.60
2022-07-25T18:31:42.591Z,24.50
2022-07-25T18:34:10.192Z,24.50
2022-07-25T18:36:37.916Z,24.50
2022-07-25T18:39:06.081Z,24.50
2022-07-25T18:41:34.369Z,24.50
2022-07-25T18:44:01.877Z,24.40
2022-07-25T18:46:30.437Z,24.40
2022-07-25T18:48:58.541Z,24.50
2022-07-25T18:51:25.852Z,24.30
2022-07-25T18:53:53.071Z,24.10
2022-07-25T18:56:20.413Z,23.90
2022-07-25T18:58:47.811Z,23.70
2022-07-25T19:01:15.407Z,23.60
2022-07-25T19:03:42.791Z,23.60
2022-07-25T19:06:10.516Z,23.60
2022-07-25T19:08:38.045Z,23.60
2022-07-25T19:11:08.704Z,23.60
2022-07-25T19:13:49.690Z,23.70
2022-07-25T19:16:19.127Z,23.80
2022-07-25T19:18:47.195Z,23.70
2022-07-25T19:21:15.945Z,23.70
2022-07-25T19:23:48.300Z,23.70
2022-07-25T19:26:18.089Z,23.70
2022-07-25T19:28:45.584Z,23.60
2022-07-25T19:31:14.889Z,23.70
2022-07-25T19:33:42.446Z,23.60
2022-07-25T19:36:10.212Z,23.60
2022-07-25T19:38:37.555Z,23.60
2022-07-25T19:41:05.110Z,23.60
2022-07-25T19:43:32.600Z,23.60
2022-07-25T19:46:00.094Z,23.60
2022-07-25T19:48:27.525Z,23.50
2022-07-25T19:50:55.003Z,23.50
2022-07-25T19:53:28.139Z,23.50
2022-07-25T19:55:56.032Z,23.30
2022-07-25T19:58:23.506Z,23.30
2022-07-25T20:00:51.063Z,23.30
2022-07-25T20:03:23.258Z,23.20
2022-07-25T20:05:51.589Z,23.10
2022-07-25T20:08:19.093Z,23.00
2022-07-25T20:10:47.555Z,22.90
2022-07-25T20:13:14.971Z,22.80
2022-07-25T20:15:42.451Z,22.70
2022-07-25T20:18:09.788Z,22.80
2022-07-25T20:20:37.335Z,22.70
2022-07-25T20:23:04.750Z,22.70
2022-07-25T20:25:32.312Z,22.70
2022-07-25T20:27:59.606Z,22.70
2022-07-25T20:30:29.299Z,22.70
2022-07-25T20:33:00.230Z,22.70
2022-07-25T20:35:34.527Z,22.60
2022-07-25T20:38:09.123Z,22.60
2022-07-25T20:40:43.828Z,22.60
2022-07-25T20:43:15.892Z,22.60
2022-07-25T20:45:43.407Z,22.60
2022-07-25T20:48:11.098Z,22.50
2022-07-25T20:50:39.421Z,22.50
2022-07-25T20:53:07.770Z,22.50
2022-07-25T20:55:36.019Z,22.50
2022-07-25T20:58:05.026Z,22.40
2022-07-25T21:00:32.600Z,22.40
2022-07-25T21:03:01.068Z,22.40
2022-07-25T21:05:28.984Z,22.30
2022-07-25T21:07:56.860Z,22.30
2022-07-25T21:10:24.359Z,22.20
2022-07-25T21:12:51.982Z,22.10
2022-07-25T21:15:20.296Z,22.00
2022-07-25T21:17:47.684Z,22.00
2022-07-25T21:20:18.256Z,22.00
2022-07-25T21:22:45.916Z,22.00
2022-07-25T21:25:13.424Z,22.00
2022-07-25T21:27:41.133Z,22.00
2022-07-25T21:30:10.909Z,21.90
2022-07-25T21:32:39.642Z,21.80
2022-07-25T21:35:07.700Z,21.80
2022-07-25T21:37:35.245Z,21.80
2022-07-25T21:40:03.138Z,21.80
2022-07-25T21:42:31.715Z,21.80
2022-07-25T21:45:02.197Z,21.80
2022-07-25T21:47:29.658Z,21.80
2022-07-25T21:50:19.205Z,21.80
2022-07-25T21:52:52.580Z,21.70
2022-07-25T21:55:21.066Z,21.70
2022-07-25T21:57:49.091Z,21.60
2022-07-25T22:00:17.320Z,21.60
2022-07-25T22:02:46.341Z,21.50
2022-07-25T22:05:15.869Z,21.50
2022-07-25T22:07:44.125Z,21.40
2022-07-25T22:10:13.319Z,21.40
2022-07-25T22:12:41.514Z,21.50
2022-07-25T22:15:14.412Z,21.40
2022-07-25T22:17:49.068Z,21.40
2022-07-25T22:20:21.009Z,21.30
2022-07-25T22:22:49.159Z,21.30
2022-07-25T22:25:18.904Z,21.30
2022-07-25T22:27:46.299Z,21.20
2022-07-25T22:30:18.868Z,21.20
2022-07-25T22:32:48.260Z,21.10
2022-07-25T22:35:19.048Z,21.10
2022-07-25T22:37:46.662Z,21.00
2022-07-25T22:40:17.259Z,20.90
2022-07-25T22:42:44.737Z,20.90
2022-07-25T22:45:12.103Z,20.90
2022-07-25T22:47:41.969Z,20.90
2022-07-25T22:50:09.938Z,20.80
2022-07-25T22:52:37.308Z,20.70
2022-07-25T22:55:05.002Z,20.70
2022-07-25T22:57:37.095Z,20.60
2022-07-25T23:00:12.889Z,20.60
2022-07-25T23:02:40.720Z,20.50
2022-07-25T23:05:08.742Z,20.60
2022-07-25T23:07:38.408Z,20.50
2022-07-25T23:10:06.731Z,20.40
2022-07-25T23:12:38.842Z,20.50
2022-07-25T23:15:10.029Z,20.40
2022-07-25T23:17:37.927Z,20.30
2022-07-25T23:20:06.602Z,20.30
2022-07-25T23:22:34.007Z,20.30
2022-07-25T23:25:01.359Z,20.20
2022-07-25T23:27:33.245Z,20.20
2022-07-25T23:30:07.788Z,20.10
2022-07-25T23:32:35.311Z,20.10
2022-07-25T23:35:02.707Z,20.10
2022-07-25T23:37:30.080Z,20.10
2022-07-25T23:39:59.908Z,20.00
2022-07-25T23:42:30.692Z,20.00
2022-07-25T23:44:59.046Z,19.90
2022-07-25T23:47:36.907Z,19.90
2022-07-25T23:50:11.736Z,19.90
2022-07-25T23:52:39.457Z,19.90
2022-07-25T23:55:07.795Z,19.80
2022-07-25T23:57:35.232Z,19.80
